sensor_id;sensor_type;location;lat;lon;timestamp;pressure;altitude;pressure_sealevel;temperature;humidity
54936;BME280;40838;50.676;7.838;2024-03-22T00:02:02;98959.19;;;7.85;100.00
54936;BME280;40838;50.676;7.838;2024-03-22T00:04:28;98959.94;;;8.36;100.00
54936;BME280;40838;50.676;7.838;2024-03-22T00:06:56;98958.00;;;7.63;100.00
54936;BME280;40838;50.676;7.838;2024-03-22T00:09:23;98958.41;;;8.03;100.00
54936;BME280;40838;50.676;7.838;2024-03-22T00:11:50;98958.13;;;8.11;100.00
54936;BME280;40838;50.676;7.838;2024-03-22T00:14:16;98955.22;;;8.01;100.00
54936;BME280;40838;50.676;7.838;2024-03-22T00:16:44;98949.69;;;7.84;100.00
54936;BME280;40838;50.676;7.838;2024-03-22T00:19:10;98948.97;;;8.14;100.00
54936;BME280;40838;50.676;7.838;2024-03-22T00:21:37;98952.69;;;8.31;100.00
54936;BME280;40838;50.676;7.838;2024-03-22T00:24:05;98951.44;;;8.34;100.00
54936;BME280;40838;50.676;7.838;2024-03-22T00:26:32;98947.22;;;7.89;100.00
54936;BME280;40838;50.676;7.838;2024-03-22T00:28:58;98945.34;;;7.71;100.00
54936;BME280;40838;50.676;7.838;2024-03-22T00:31:25;98943.69;;;7.52;100.00
54936;BME280;40838;50.676;7.838;2024-03-22T00:33:51;98944.78;;;7.88;100.00
54936;BME280;40838;50.676;7.838;2024-03-22T00:36:18;98940.63;;;7.98;100.00
54936;BME280;40838;50.676;7.838;2024-03-22T00:38:44;98940.63;;;7.80;100.00
54936;BME280;40838;50.676;7.838;2024-03-22T00:41:13;98936.44;;;7.47;100.00
54936;BME280;40838;50.676;7.838;2024-03-22T00:43:39;98933.63;;;7.67;100.00
54936;BME280;40838;50.676;7.838;2024-03-22T00:46:06;98930.75;;;7.25;100.00
54936;BME280;40838;50.676;7.838;2024-03-22T00:48:33;98929.22;;;7.11;100.00
54936;BME280;40838;50.676;7.838;2024-03-22T00:51:00;98927.88;;;7.27;100.00
54936;BME280;40838;50.676;7.838;2024-03-22T00:53:26;98924.50;;;7.20;100.00
54936;BME280;40838;50.676;7.838;2024-03-22T00:55:54;98929.28;;;7.04;100.00
54936;BME280;40838;50.676;7.838;2024-03-22T00:58:23;98927.66;;;6.65;100.00
54936;BME280;40838;50.676;7.838;2024-03-22T01:00:50;98929.97;;;6.55;100.00
54936;BME280;40838;50.676;7.838;2024-03-22T01:03:16;98928.22;;;6.74;100.00
54936;BME280;40838;50.676;7.838;2024-03-22T01:05:43;98921.41;;;6.98;100.00
54936;BME280;40838;50.676;7.838;2024-03-22T01:08:10;98923.16;;;6.79;100.00
54936;BME280;40838;50.676;7.838;2024-03-22T01:10:37;98919.84;;;5.93;100.00
54936;BME280;40838;50.676;7.838;2024-03-22T01:13:03;98915.81;;;5.78;100.00
54936;BME280;40838;50.676;7.838;2024-03-22T01:15:32;98897.66;;;5.76;100.00
54936;BME280;40838;50.676;7.838;2024-03-22T01:17:58;98902.81;;;6.03;100.00
54936;BME280;40838;50.676;7.838;2024-03-22T01:20:25;98902.03;;;6.02;100.00
54936;BME280;40838;50.676;7.838;2024-03-22T01:22:51;98898.13;;;6.18;100.00
54936;BME280;40838;50.676;7.838;2024-03-22T01:25:18;98892.81;;;6.25;100.00
54936;BME280;40838;50.676;7.838;2024-03-22T01:27:44;98889.25;;;6.12;100.00
54936;BME280;40838;50.676;7.838;2024-03-22T01:30:11;98878.31;;;6.15;100.00
54936;BME280;40838;50.676;7.838;2024-03-22T01:32:39;98870.69;;;6.84;100.00
54936;BME280;40838;50.676;7.838;2024-03-22T01:35:06;98873.03;;;6.99;100.00
54936;BME280;40838;50.676;7.838;2024-03-22T01:37:32;98877.59;;;7.10;100.00
54936;BME280;40838;50.676;7.838;2024-03-22T01:39:59;98876.03;;;7.02;100.00
54936;BME280;40838;50.676;7.838;2024-03-22T01:42:25;98872.06;;;6.61;100.00
54936;BME280;40838;50.676;7.838;2024-03-22T01:44:53;98874.97;;;6.47;100.00
54936;BME280;40838;50.676;7.838;2024-03-22T01:47:19;98878.50;;;6.97;100.00
54936;BME280;40838;50.676;7.838;2024-03-22T01:49:47;98882.22;;;7.15;100.00
54936;BME280;40838;50.676;7.838;2024-03-22T01:52:14;98870.81;;;6.96;100.00
54936;BME280;40838;50.676;7.838;2024-03-22T01:54:41;98872.25;;;6.92;100.00
54936;BME280;40838;50.676;7.838;2024-03-22T01:57:08;98870.16;;;6.37;100.00
54936;BME280;40838;50.676;7.838;2024-03-22T01:59:35;98866.31;;;6.33;100.00
54936;BME280;40838;50.676;7.838;2024-03-22T02:02:01;98862.25;;;6.75;100.00
54936;BME280;40838;50.676;7.838;2024-03-22T02:04:29;98852.53;;;6.76;100.00
54936;BME280;40838;50.676;7.838;2024-03-22T02:06:56;98843.59;;;6.45;100.00
54936;BME280;40838;50.676;7.838;2024-03-22T02:09:24;98846.41;;;7.32;100.00
54936;BME280;40838;50.676;7.838;2024-03-22T02:11:50;98852.34;;;7.27;100.00
54936;BME280;40838;50.676;7.838;2024-03-22T02:14:17;98842.53;;;7.35;100.00
54936;BME280;40838;50.676;7.838;2024-03-22T02:16:43;98843.28;;;6.67;100.00
54936;BME280;40838;50.676;7.838;2024-03-22T02:19:11;98844.50;;;6.96;100.00
54936;BME280;40838;50.676;7.838;2024-03-22T02:21:37;98842.38;;;7.29;100.00
54936;BME280;40838;50.676;7.838;2024-03-22T02:24:05;98833.22;;;7.14;100.00
54936;BME280;40838;50.676;7.838;2024-03-22T02:26:31;98825.09;;;7.15;100.00
54936;BME280;40838;50.676;7.838;2024-03-22T02:28:58;98832.72;;;6.73;100.00
54936;BME280;40838;50.676;7.838;2024-03-22T02:31:24;98826.66;;;6.41;100.00
54936;BME280;40838;50.676;7.838;2024-03-22T02:33:52;98805.63;;;6.34;100.00
54936;BME280;40838;50.676;7.838;2024-03-22T02:36:18;98817.00;;;6.67;100.00
54936;BME280;40838;50.676;7.838;2024-03-22T02:38:45;98806.16;;;6.50;100.00
54936;BME280;40838;50.676;7.838;2024-03-22T02:41:13;98800.59;;;6.65;100.00
54936;BME280;40838;50.676;7.838;2024-03-22T02:43:40;98795.91;;;6.42;100.00
54936;BME280;40838;50.676;7.838;2024-03-22T02:46:06;98802.38;;;6.71;100.00
54936;BME280;40838;50.676;7.838;2024-03-22T02:48:33;98799.63;;;6.59;100.00
54936;BME280;40838;50.676;7.838;2024-03-22T02:50:59;98797.78;;;6.66;100.00
54936;BME280;40838;50.676;7.838;2024-03-22T02:53:26;98789.03;;;6.72;100.00
54936;BME280;40838;50.676;7.838;2024-03-22T02:55:52;98785.50;;;7.03;100.00
54936;BME280;40838;50.676;7.838;2024-03-22T02:58:20;98779.63;;;7.26;100.00
54936;BME280;40838;50.676;7.838;2024-03-22T03:00:47;98773.41;;;7.21;100.00
54936;BME280;40838;50.676;7.838;2024-03-22T03:03:14;98762.28;;;6.75;100.00
54936;BME280;40838;50.676;7.838;2024-03-22T03:05:41;98765.59;;;6.89;100.00
54936;BME280;40838;50.676;7.838;2024-03-22T03:08:09;98763.28;;;6.99;100.00
54936;BME280;40838;50.676;7.838;2024-03-22T03:10:35;98765.47;;;6.77;100.00
54936;BME280;40838;50.676;7.838;2024-03-22T03:13:03;98754.97;;;6.52;100.00
54936;BME280;40838;50.676;7.838;2024-03-22T03:15:30;98757.94;;;7.06;100.00
54936;BME280;40838;50.676;7.838;2024-03-22T03:17:57;98751.69;;;7.25;100.00
54936;BME280;40838;50.676;7.838;2024-03-22T03:20:24;98744.75;;;7.31;100.00
54936;BME280;40838;50.676;7.838;2024-03-22T03:22:52;98748.56;;;7.53;100.00
54936;BME280;40838;50.676;7.838;2024-03-22T03:25:18;98757.38;;;7.22;100.00
54936;BME280;40838;50.676;7.838;2024-03-22T03:27:45;98743.94;;;7.49;100.00
54936;BME280;40838;50.676;7.838;2024-03-22T03:30:11;98743.28;;;7.35;100.00
54936;BME280;40838;50.676;7.838;2024-03-22T03:32:39;98738.97;;;7.41;100.00
54936;BME280;40838;50.676;7.838;2024-03-22T03:35:07;98735.72;;;7.39;100.00
54936;BME280;40838;50.676;7.838;2024-03-22T03:37:33;98730.31;;;7.52;100.00
54936;BME280;40838;50.676;7.838;2024-03-22T03:40:00;98730.13;;;7.84;100.00
54936;BME280;40838;50.676;7.838;2024-03-22T03:42:26;98732.31;;;7.57;100.00
54936;BME280;40838;50.676;7.838;2024-03-22T03:44:53;98727.03;;;7.57;100.00
54936;BME280;40838;50.676;7.838;2024-03-22T03:47:19;98737.50;;;7.63;100.00
54936;BME280;40838;50.676;7.838;2024-03-22T03:49:48;98738.19;;;7.70;100.00
54936;BME280;40838;50.676;7.838;2024-03-22T03:52:14;98741.31;;;7.49;100.00
54936;BME280;40838;50.676;7.838;2024-03-22T03:54:41;98738.09;;;7.10;100.00
54936;BME280;40838;50.676;7.838;2024-03-22T03:57:07;98739.06;;;6.91;100.00
54936;BME280;40838;50.676;7.838;2024-03-22T03:59:34;98731.84;;;7.04;100.00
54936;BME280;40838;50.676;7.838;2024-03-22T04:02:00;98724.06;;;6.91;100.00
54936;BME280;40838;50.676;7.838;2024-03-22T04:04:27;98723.44;;;7.14;100.00
54936;BME280;40838;50.676;7.838;2024-03-22T04:06:54;98735.28;;;7.05;100.00
54936;BME280;40838;50.676;7.838;2024-03-22T04:09:21;98724.84;;;7.35;100.00
54936;BME280;40838;50.676;7.838;2024-03-22T04:11:46;98723.88;;;7.29;100.00
54936;BME280;40838;50.676;7.838;2024-03-22T04:14:14;98726.66;;;7.53;100.00
54936;BME280;40838;50.676;7.838;2024-03-22T04:16:40;98732.31;;;7.57;100.00
54936;BME280;40838;50.676;7.838;2024-03-22T04:19:06;98716.00;;;7.48;100.00
54936;BME280;40838;50.676;7.838;2024-03-22T04:21:33;98719.94;;;7.57;100.00
54936;BME280;40838;50.676;7.838;2024-03-22T04:24:01;98713.44;;;8.32;100.00
54936;BME280;40838;50.676;7.838;2024-03-22T04:26:27;98707.16;;;7.72;100.00
54936;BME280;40838;50.676;7.838;2024-03-22T04:28:54;98707.84;;;7.98;100.00
54936;BME280;40838;50.676;7.838;2024-03-22T04:31:20;98712.09;;;7.32;100.00
54936;BME280;40838;50.676;7.838;2024-03-22T04:33:47;98711.22;;;7.38;100.00
54936;BME280;40838;50.676;7.838;2024-03-22T04:36:13;98705.25;;;7.31;100.00
54936;BME280;40838;50.676;7.838;2024-03-22T04:38:40;98704.28;;;7.44;100.00
54936;BME280;40838;50.676;7.838;2024-03-22T04:41:08;98708.00;;;7.85;100.00
54936;BME280;40838;50.676;7.838;2024-03-22T04:43:35;98716.78;;;7.48;100.00
54936;BME280;40838;50.676;7.838;2024-03-22T04:46:00;98711.72;;;7.65;100.00
54936;BME280;40838;50.676;7.838;2024-03-22T04:48:27;98715.63;;;7.26;100.00
54936;BME280;40838;50.676;7.838;2024-03-22T04:50:53;98709.84;;;7.36;100.00
54936;BME280;40838;50.676;7.838;2024-03-22T04:53:20;98707.19;;;7.36;100.00
54936;BME280;40838;50.676;7.838;2024-03-22T04:55:47;98710.16;;;7.76;100.00
54936;BME280;40838;50.676;7.838;2024-03-22T04:58:17;98706.69;;;8.06;100.00
54936;BME280;40838;50.676;7.838;2024-03-22T05:00:43;98708.81;;;7.55;100.00
54936;BME280;40838;50.676;7.838;2024-03-22T05:03:11;98703.03;;;8.37;100.00
54936;BME280;40838;50.676;7.838;2024-03-22T05:05:37;98700.00;;;8.21;100.00
54936;BME280;40838;50.676;7.838;2024-03-22T05:08:05;98694.22;;;8.43;100.00
54936;BME280;40838;50.676;7.838;2024-03-22T05:10:31;98695.38;;;8.17;100.00
54936;BME280;40838;50.676;7.838;2024-03-22T05:12:59;98688.69;;;8.33;100.00
54936;BME280;40838;50.676;7.838;2024-03-22T05:15:27;98688.41;;;8.22;100.00
54936;BME280;40838;50.676;7.838;2024-03-22T05:17:57;98683.72;;;8.25;100.00
54936;BME280;40838;50.676;7.838;2024-03-22T05:20:23;98670.59;;;8.60;100.00
54936;BME280;40838;50.676;7.838;2024-03-22T05:22:50;98670.13;;;8.75;100.00
54936;BME280;40838;50.676;7.838;2024-03-22T05:25:17;98675.34;;;8.16;100.00
54936;BME280;40838;50.676;7.838;2024-03-22T05:27:44;98664.97;;;8.44;100.00
54936;BME280;40838;50.676;7.838;2024-03-22T05:30:12;98662.69;;;8.48;100.00
54936;BME280;40838;50.676;7.838;2024-03-22T05:32:41;98667.38;;;8.46;100.00
54936;BME280;40838;50.676;7.838;2024-03-22T05:35:07;98663.41;;;8.25;100.00
54936;BME280;40838;50.676;7.838;2024-03-22T05:37:35;98655.09;;;8.87;100.00
54936;BME280;40838;50.676;7.838;2024-03-22T05:40:02;98654.88;;;8.65;100.00
54936;BME280;40838;50.676;7.838;2024-03-22T05:42:29;98650.72;;;8.93;100.00
54936;BME280;40838;50.676;7.838;2024-03-22T05:45:00;98651.78;;;8.44;100.00
54936;BME280;40838;50.676;7.838;2024-03-22T05:47:30;98657.06;;;8.33;100.00
54936;BME280;40838;50.676;7.838;2024-03-22T05:49:58;98647.88;;;8.71;100.00
54936;BME280;40838;50.676;7.838;2024-03-22T05:52:25;98653.16;;;8.71;100.00
54936;BME280;40838;50.676;7.838;2024-03-22T05:54:51;98650.13;;;9.02;100.00
54936;BME280;40838;50.676;7.838;2024-03-22T05:57:19;98644.66;;;9.32;100.00
54936;BME280;40838;50.676;7.838;2024-03-22T05:59:45;98640.47;;;9.08;100.00
54936;BME280;40838;50.676;7.838;2024-03-22T06:02:14;98645.47;;;8.69;100.00
54936;BME280;40838;50.676;7.838;2024-03-22T06:04:41;98633.16;;;9.39;100.00
54936;BME280;40838;50.676;7.838;2024-03-22T06:07:09;98642.56;;;9.34;100.00
54936;BME280;40838;50.676;7.838;2024-03-22T06:09:35;98641.44;;;9.30;100.00
54936;BME280;40838;50.676;7.838;2024-03-22T06:12:11;98634.22;;;9.54;100.00
54936;BME280;40838;50.676;7.838;2024-03-22T06:14:37;98641.78;;;8.82;100.00
54936;BME280;40838;50.676;7.838;2024-03-22T06:17:07;98627.81;;;9.79;100.00
54936;BME280;40838;50.676;7.838;2024-03-22T06:19:37;98628.66;;;9.96;100.00
54936;BME280;40838;50.676;7.838;2024-03-22T06:22:05;98627.72;;;10.02;100.00
54936;BME280;40838;50.676;7.838;2024-03-22T06:24:33;98630.41;;;10.08;100.00
54936;BME280;40838;50.676;7.838;2024-03-22T06:27:01;98624.50;;;9.43;100.00
54936;BME280;40838;50.676;7.838;2024-03-22T06:29:28;98625.53;;;9.99;100.00
54936;BME280;40838;50.676;7.838;2024-03-22T06:31:56;98628.09;;;9.94;100.00
54936;BME280;40838;50.676;7.838;2024-03-22T06:34:22;98632.38;;;9.84;100.00
54936;BME280;40838;50.676;7.838;2024-03-22T06:36:49;98631.03;;;9.52;100.00
54936;BME280;40838;50.676;7.838;2024-03-22T06:39:16;98630.34;;;9.86;100.00
54936;BME280;40838;50.676;7.838;2024-03-22T06:41:45;98624.31;;;9.90;100.00
54936;BME280;40838;50.676;7.838;2024-03-22T06:44:12;98617.94;;;10.20;100.00
54936;BME280;40838;50.676;7.838;2024-03-22T06:46:39;98620.72;;;10.47;100.00
54936;BME280;40838;50.676;7.838;2024-03-22T06:49:06;98617.59;;;10.16;100.00
54936;BME280;40838;50.676;7.838;2024-03-22T06:51:33;98624.03;;;10.20;100.00
54936;BME280;40838;50.676;7.838;2024-03-22T06:53:59;98616.00;;;9.70;100.00
54936;BME280;40838;50.676;7.838;2024-03-22T06:56:27;98616.56;;;9.72;100.00
54936;BME280;40838;50.676;7.838;2024-03-22T06:58:55;98613.13;;;10.00;100.00
54936;BME280;40838;50.676;7.838;2024-03-22T07:01:22;98607.94;;;10.61;100.00
54936;BME280;40838;50.676;7.838;2024-03-22T07:03:48;98617.75;;;10.43;100.00
54936;BME280;40838;50.676;7.838;2024-03-22T07:06:16;98601.56;;;10.79;100.00
54936;BME280;40838;50.676;7.838;2024-03-22T07:08:42;98594.84;;;10.15;100.00
54936;BME280;40838;50.676;7.838;2024-03-22T07:11:09;98603.28;;;10.51;100.00
54936;BME280;40838;50.676;7.838;2024-03-22T07:13:35;98603.41;;;11.22;100.00
54936;BME280;40838;50.676;7.838;2024-03-22T07:16:04;98607.78;;;11.11;100.00
54936;BME280;40838;50.676;7.838;2024-03-22T07:18:32;98605.50;;;10.98;100.00
54936;BME280;40838;50.676;7.838;2024-03-22T07:20:58;98597.25;;;11.66;100.00
54936;BME280;40838;50.676;7.838;2024-03-22T07:23:27;98598.97;;;11.28;100.00
54936;BME280;40838;50.676;7.838;2024-03-22T07:25:53;98596.50;;;11.43;100.00
54936;BME280;40838;50.676;7.838;2024-03-22T07:28:20;98602.03;;;11.96;100.00
54936;BME280;40838;50.676;7.838;2024-03-22T07:30:47;98591.53;;;12.48;100.00
54936;BME280;40838;50.676;7.838;2024-03-22T07:33:16;98593.97;;;12.55;100.00
54936;BME280;40838;50.676;7.838;2024-03-22T07:35:43;98589.03;;;12.32;100.00
54936;BME280;40838;50.676;7.838;2024-03-22T07:38:10;98587.63;;;12.61;100.00
54936;BME280;40838;50.676;7.838;2024-03-22T07:40:37;98598.03;;;11.93;100.00
54936;BME280;40838;50.676;7.838;2024-03-22T07:43:04;98580.88;;;12.06;100.00
54936;BME280;40838;50.676;7.838;2024-03-22T07:45:33;98594.72;;;11.49;100.00
54936;BME280;40838;50.676;7.838;2024-03-22T07:48:01;98583.81;;;11.23;100.00
54936;BME280;40838;50.676;7.838;2024-03-22T07:50:28;98585.13;;;11.43;100.00
54936;BME280;40838;50.676;7.838;2024-03-22T07:52:56;98585.84;;;11.38;100.00
54936;BME280;40838;50.676;7.838;2024-03-22T07:55:22;98579.13;;;11.30;100.00
54936;BME280;40838;50.676;7.838;2024-03-22T07:57:50;98568.69;;;12.05;100.00
54936;BME280;40838;50.676;7.838;2024-03-22T08:00:17;98584.75;;;11.61;100.00
54936;BME280;40838;50.676;7.838;2024-03-22T08:02:44;98577.25;;;12.55;100.00
54936;BME280;40838;50.676;7.838;2024-03-22T08:05:10;98572.28;;;12.68;100.00
54936;BME280;40838;50.676;7.838;2024-03-22T08:07:38;98571.84;;;12.97;100.00
54936;BME280;40838;50.676;7.838;2024-03-22T08:10:05;98563.03;;;13.75;100.00
54936;BME280;40838;50.676;7.838;2024-03-22T08:12:33;98563.06;;;12.86;100.00
54936;BME280;40838;50.676;7.838;2024-03-22T08:14:59;98566.56;;;12.49;100.00
54936;BME280;40838;50.676;7.838;2024-03-22T08:17:26;98552.34;;;13.59;100.00
54936;BME280;40838;50.676;7.838;2024-03-22T08:19:52;98548.91;;;16.19;100.00
54936;BME280;40838;50.676;7.838;2024-03-22T08:22:19;98536.97;;;17.07;100.00
54936;BME280;40838;50.676;7.838;2024-03-22T08:24:48;98534.16;;;18.76;100.00
54936;BME280;40838;50.676;7.838;2024-03-22T08:27:15;98535.88;;;18.86;100.00
54936;BME280;40838;50.676;7.838;2024-03-22T08:29:41;98530.66;;;17.55;100.00
54936;BME280;40838;50.676;7.838;2024-03-22T08:32:08;98537.25;;;16.87;100.00
54936;BME280;40838;50.676;7.838;2024-03-22T08:34:34;98537.81;;;16.06;100.00
54936;BME280;40838;50.676;7.838;2024-03-22T08:37:01;98531.09;;;15.40;100.00
54936;BME280;40838;50.676;7.838;2024-03-22T08:39:29;98530.91;;;14.72;100.00
54936;BME280;40838;50.676;7.838;2024-03-22T08:41:57;98539.31;;;15.05;100.00
54936;BME280;40838;50.676;7.838;2024-03-22T08:44:24;98527.72;;;16.51;100.00
54936;BME280;40838;50.676;7.838;2024-03-22T08:46:52;98525.22;;;17.79;100.00
54936;BME280;40838;50.676;7.838;2024-03-22T08:49:18;98525.72;;;16.14;100.00
54936;BME280;40838;50.676;7.838;2024-03-22T08:51:45;98529.25;;;16.33;100.00
54936;BME280;40838;50.676;7.838;2024-03-22T08:54:11;98521.41;;;16.18;100.00
54936;BME280;40838;50.676;7.838;2024-03-22T08:56:39;98519.81;;;16.89;100.00
54936;BME280;40838;50.676;7.838;2024-03-22T08:59:06;98505.28;;;17.52;100.00
54936;BME280;40838;50.676;7.838;2024-03-22T09:01:33;98519.47;;;16.96;100.00
54936;BME280;40838;50.676;7.838;2024-03-22T09:03:59;98504.81;;;16.69;100.00
54936;BME280;40838;50.676;7.838;2024-03-22T09:06:26;98503.38;;;16.05;100.00
54936;BME280;40838;50.676;7.838;2024-03-22T09:08:52;98494.56;;;17.52;100.00
54936;BME280;40838;50.676;7.838;2024-03-22T09:11:20;98497.41;;;17.42;100.00
54936;BME280;40838;50.676;7.838;2024-03-22T09:13:47;98495.91;;;16.98;100.00
54936;BME280;40838;50.676;7.838;2024-03-22T09:16:16;98502.16;;;15.58;100.00
54936;BME280;40838;50.676;7.838;2024-03-22T09:18:42;98493.00;;;16.27;100.00
54936;BME280;40838;50.676;7.838;2024-03-22T09:21:10;98485.00;;;16.70;100.00
54936;BME280;40838;50.676;7.838;2024-03-22T09:23:36;98492.44;;;15.72;100.00
54936;BME280;40838;50.676;7.838;2024-03-22T09:26:03;98484.31;;;15.14;100.00
54936;BME280;40838;50.676;7.838;2024-03-22T09:28:29;98487.69;;;15.35;100.00
54936;BME280;40838;50.676;7.838;2024-03-22T09:30:57;98482.56;;;15.73;100.00
54936;BME280;40838;50.676;7.838;2024-03-22T09:33:24;98476.78;;;16.43;100.00
54936;BME280;40838;50.676;7.838;2024-03-22T09:35:51;98470.41;;;16.87;100.00
54936;BME280;40838;50.676;7.838;2024-03-22T09:38:17;98475.00;;;16.14;100.00
54936;BME280;40838;50.676;7.838;2024-03-22T09:40:44;98477.78;;;15.99;100.00
54936;BME280;40838;50.676;7.838;2024-03-22T09:43:12;98467.94;;;17.09;100.00
54936;BME280;40838;50.676;7.838;2024-03-22T09:45:44;98471.97;;;16.45;100.00
54936;BME280;40838;50.676;7.838;2024-03-22T09:48:11;98474.34;;;15.35;100.00
54936;BME280;40838;50.676;7.838;2024-03-22T09:50:40;98471.31;;;15.47;100.00
54936;BME280;40838;50.676;7.838;2024-03-22T09:53:08;98466.03;;;15.36;100.00
54936;BME280;40838;50.676;7.838;2024-03-22T09:55:36;98467.69;;;15.32;100.00
54936;BME280;40838;50.676;7.838;2024-03-22T09:58:03;98468.16;;;16.27;100.00
54936;BME280;40838;50.676;7.838;2024-03-22T10:00:30;98454.72;;;16.99;100.00
54936;BME280;40838;50.676;7.838;2024-03-22T10:02:57;98459.44;;;16.64;100.00
54936;BME280;40838;50.676;7.838;2024-03-22T10:05:24;98452.88;;;16.32;100.00
54936;BME280;40838;50.676;7.838;2024-03-22T10:07:51;98460.88;;;15.84;100.00
54936;BME280;40838;50.676;7.838;2024-03-22T10:10:18;98446.88;;;16.65;100.00
54936;BME280;40838;50.676;7.838;2024-03-22T10:12:44;98459.13;;;16.23;100.00
54936;BME280;40838;50.676;7.838;2024-03-22T10:15:11;98450.47;;;16.55;100.00
54936;BME280;40838;50.676;7.838;2024-03-22T10:17:39;98444.81;;;16.38;100.00
54936;BME280;40838;50.676;7.838;2024-03-22T10:20:06;98437.53;;;16.43;100.00
54936;BME280;40838;50.676;7.838;2024-03-22T10:22:38;98440.75;;;15.63;100.00
54936;BME280;40838;50.676;7.838;2024-03-22T10:25:06;98438.50;;;16.04;100.00
54936;BME280;40838;50.676;7.838;2024-03-22T10:27:32;98423.16;;;16.15;100.00
54936;BME280;40838;50.676;7.838;2024-03-22T10:30:00;98427.81;;;15.75;100.00
54936;BME280;40838;50.676;7.838;2024-03-22T10:32:27;98422.78;;;15.74;100.00
54936;BME280;40838;50.676;7.838;2024-03-22T10:34:54;98432.09;;;14.63;100.00
54936;BME280;40838;50.676;7.838;2024-03-22T10:37:21;98428.28;;;15.24;100.00
54936;BME280;40838;50.676;7.838;2024-03-22T10:39:50;98431.41;;;14.97;100.00
54936;BME280;40838;50.676;7.838;2024-03-22T10:42:19;98421.19;;;15.73;100.00
54936;BME280;40838;50.676;7.838;2024-03-22T10:44:46;98407.78;;;16.07;100.00
54936;BME280;40838;50.676;7.838;2024-03-22T10:47:13;98410.44;;;16.07;100.00
54936;BME280;40838;50.676;7.838;2024-03-22T10:49:42;98421.38;;;15.52;100.00
54936;BME280;40838;50.676;7.838;2024-03-22T10:52:10;98416.97;;;15.03;100.00
54936;BME280;40838;50.676;7.838;2024-03-22T10:54:40;98412.38;;;15.43;100.00
54936;BME280;40838;50.676;7.838;2024-03-22T10:57:12;98408.84;;;15.53;100.00
54936;BME280;40838;50.676;7.838;2024-03-22T10:59:42;98411.03;;;15.45;100.00
54936;BME280;40838;50.676;7.838;2024-03-22T11:02:11;98396.50;;;15.28;100.00
54936;BME280;40838;50.676;7.838;2024-03-22T11:04:38;98394.69;;;14.89;100.00
54936;BME280;40838;50.676;7.838;2024-03-22T11:07:05;98393.47;;;15.39;100.00
54936;BME280;40838;50.676;7.838;2024-03-22T11:09:33;98394.28;;;14.61;100.00
54936;BME280;40838;50.676;7.838;2024-03-22T11:12:04;98386.47;;;15.49;100.00
54936;BME280;40838;50.676;7.838;2024-03-22T11:14:36;98385.00;;;15.61;100.00
54936;BME280;40838;50.676;7.838;2024-03-22T11:17:04;98377.63;;;15.53;100.00
54936;BME280;40838;50.676;7.838;2024-03-22T11:19:33;98379.25;;;15.20;100.00
54936;BME280;40838;50.676;7.838;2024-03-22T11:21:59;98377.59;;;14.95;100.00
54936;BME280;40838;50.676;7.838;2024-03-22T11:24:26;98366.59;;;15.02;100.00
54936;BME280;40838;50.676;7.838;2024-03-22T11:26:53;98372.06;;;14.81;100.00
54936;BME280;40838;50.676;7.838;2024-03-22T11:29:20;98365.63;;;14.87;100.00
54936;BME280;40838;50.676;7.838;2024-03-22T11:31:46;98350.72;;;15.74;100.00
54936;BME280;40838;50.676;7.838;2024-03-22T11:34:14;98348.75;;;15.31;100.00
54936;BME280;40838;50.676;7.838;2024-03-22T11:36:40;98351.81;;;14.85;100.00
54936;BME280;40838;50.676;7.838;2024-03-22T11:39:07;98344.81;;;15.77;100.00
54936;BME280;40838;50.676;7.838;2024-03-22T11:41:34;98346.81;;;15.37;100.00
54936;BME280;40838;50.676;7.838;2024-03-22T11:44:02;98340.94;;;15.40;100.00
54936;BME280;40838;50.676;7.838;2024-03-22T11:46:28;98345.63;;;14.90;100.00
54936;BME280;40838;50.676;7.838;2024-03-22T11:48:55;98343.31;;;14.33;100.00
54936;BME280;40838;50.676;7.838;2024-03-22T11:51:23;98347.44;;;14.99;100.00
54936;BME280;40838;50.676;7.838;2024-03-22T11:53:50;98326.53;;;15.12;100.00
54936;BME280;40838;50.676;7.838;2024-03-22T11:56:18;98328.16;;;15.37;100.00
54936;BME280;40838;50.676;7.838;2024-03-22T11:58:46;98315.66;;;15.85;100.00
54936;BME280;40838;50.676;7.838;2024-03-22T12:01:13;98323.56;;;15.13;100.00
54936;BME280;40838;50.676;7.838;2024-03-22T12:03:43;98313.44;;;15.15;100.00
54936;BME280;40838;50.676;7.838;2024-03-22T12:06:10;98319.78;;;15.49;100.00
54936;BME280;40838;50.676;7.838;2024-03-22T12:08:39;98317.75;;;14.77;100.00
54936;BME280;40838;50.676;7.838;2024-03-22T12:11:07;98302.22;;;15.42;100.00
54936;BME280;40838;50.676;7.838;2024-03-22T12:13:34;98300.22;;;15.82;100.00
54936;BME280;40838;50.676;7.838;2024-03-22T12:16:00;98305.84;;;14.98;100.00
54936;BME280;40838;50.676;7.838;2024-03-22T12:18:28;98300.69;;;15.60;100.00
54936;BME280;40838;50.676;7.838;2024-03-22T12:20:54;98300.22;;;15.82;100.00
54936;BME280;40838;50.676;7.838;2024-03-22T12:23:21;98297.25;;;16.27;100.00
54936;BME280;40838;50.676;7.838;2024-03-22T12:25:49;98287.78;;;16.53;100.00
54936;BME280;40838;50.676;7.838;2024-03-22T12:28:16;98288.59;;;15.49;100.00
54936;BME280;40838;50.676;7.838;2024-03-22T12:30:42;98282.22;;;15.93;100.00
54936;BME280;40838;50.676;7.838;2024-03-22T12:33:09;98289.03;;;15.56;100.00
54936;BME280;40838;50.676;7.838;2024-03-22T12:35:36;98279.19;;;16.00;100.00
54936;BME280;40838;50.676;7.838;2024-03-22T12:38:03;98283.13;;;15.59;100.00
54936;BME280;40838;50.676;7.838;2024-03-22T12:40:29;98278.13;;;15.29;100.00
54936;BME280;40838;50.676;7.838;2024-03-22T12:42:59;98274.19;;;14.92;100.00
54936;BME280;40838;50.676;7.838;2024-03-22T12:45:25;98270.50;;;15.65;100.00
54936;BME280;40838;50.676;7.838;2024-03-22T12:47:52;98267.88;;;15.41;100.00
54936;BME280;40838;50.676;7.838;2024-03-22T12:50:18;98271.16;;;15.33;100.00
54936;BME280;40838;50.676;7.838;2024-03-22T12:52:45;98265.41;;;15.68;100.00
54936;BME280;40838;50.676;7.838;2024-03-22T12:55:11;98264.50;;;15.30;100.00